createdAt,value
2017-10-10T00:00:00.120Z,1014.59
2017-10-10T00:01:09.295Z,1014.61
2017-10-10T00:02:18.127Z,1014.62
2017-10-10T00:03:26.958Z,1014.58
2017-10-10T00:04:35.794Z,1014.59
2017-10-10T00:05:44.677Z,1014.58
2017-10-10T00:06:53.510Z,1014.59
2017-10-10T00:08:02.341Z,1014.57
2017-10-10T00:09:11.178Z,1014.59
2017-10-10T00:10:20.357Z,1014.55
2017-10-10T00:11:29.239Z,1014.54
2017-10-10T00:12:38.072Z,1014.52
2017-10-10T00:13:46.906Z,1014.52
2017-10-10T00:14:55.741Z,1014.51
2017-10-10T00:16:04.573Z,1014.49
2017-10-10T00:17:13.555Z,1014.5
2017-10-10T00:18:22.388Z,1014.52
2017-10-10T00:19:31.238Z,1014.44
2017-10-10T00:20:40.056Z,1014.47
2017-10-10T00:21:48.885Z,1014.49
2017-10-10T00:22:57.766Z,1014.43
2017-10-10T00:24:06.596Z,1014.45
2017-10-10T00:25:15.426Z,1014.45
2017-10-10T00:26:24.259Z,1014.4
2017-10-10T00:27:33.094Z,1014.44
2017-10-10T00:28:42.027Z,1014.45
2017-10-10T00:29:50.859Z,1014.44
2017-10-10T00:30:59.692Z,1014.43
2017-10-10T00:32:08.525Z,1014.39
2017-10-10T00:33:17.359Z,1014.34
2017-10-10T00:34:26.492Z,1014.36
2017-10-10T00:35:35.324Z,1014.34
2017-10-10T00:36:44.155Z,1014.31
2017-10-10T00:37:53.337Z,1014.31
2017-10-10T00:39:02.171Z,1014.29
2017-10-10T00:40:11.153Z,1014.25
2017-10-10T00:41:20.333Z,1014.26
2017-10-10T00:42:29.165Z,1014.25
2017-10-10T00:43:38.004Z,1014.21
2017-10-10T00:44:46.833Z,1014.24
2017-10-10T00:45:55.977Z,1014.25
2017-10-10T00:47:05.151Z,1014.26
2017-10-10T00:48:14.326Z,1014.24
2017-10-10T00:49:23.157Z,1014.23
2017-10-10T00:50:31.986Z,1014.28
2017-10-10T00:51:40.919Z,1014.28
2017-10-10T00:52:49.753Z,1014.26
2017-10-10T00:53:58.583Z,1014.25
2017-10-10T00:55:07.423Z,1014.24
2017-10-10T00:56:16.250Z,1014.22
2017-10-10T00:57:25.135Z,1014.25
2017-10-10T00:58:33.962Z,1014.25
2017-10-10T00:59:42.793Z,1014.23
2017-10-10T01:00:51.626Z,1014.27
2017-10-10T01:02:00.459Z,1014.22
2017-10-10T01:03:09.490Z,1014.24
2017-10-10T01:04:18.325Z,1014.24
2017-10-10T01:05:27.157Z,1014.24
2017-10-10T01:06:35.991Z,1014.23
2017-10-10T01:07:44.827Z,1014.21
2017-10-10T01:08:53.853Z,1014.22
2017-10-10T01:10:02.687Z,1014.18
2017-10-10T01:11:11.517Z,1014.22
2017-10-10T01:12:20.697Z,1014.16
2017-10-10T01:13:29.526Z,1014.14
2017-10-10T01:14:38.508Z,1014.12
2017-10-10T01:15:47.340Z,1014.11
2017-10-10T01:16:56.173Z,1014.1
2017-10-10T01:18:05.004Z,1014.11
2017-10-10T01:19:13.838Z,1014.08
2017-10-10T01:20:22.820Z,1014.1
2017-10-10T01:21:31.654Z,1014.09
2017-10-10T01:22:40.486Z,1014.09
2017-10-10T01:23:49.318Z,1014.09
2017-10-10T01:24:58.155Z,1014.06
2017-10-10T01:26:07.235Z,1013.96
2017-10-10T01:27:16.068Z,1013.95
2017-10-10T01:28:24.899Z,1013.94
2017-10-10T01:29:33.730Z,1013.97
2017-10-10T01:30:42.561Z,1013.93
2017-10-10T01:31:51.443Z,1013.93
2017-10-10T01:33:00.275Z,1013.93
2017-10-10T01:34:09.460Z,1013.96
2017-10-10T01:35:18.287Z,1013.88
2017-10-10T01:36:27.122Z,1013.9
2017-10-10T01:37:36.348Z,1013.86
2017-10-10T01:38:45.182Z,1013.9
2017-10-10T01:39:54.013Z,1013.86
2017-10-10T01:41:02.845Z,1013.87
2017-10-10T01:42:11.687Z,1013.89
2017-10-10T01:43:20.919Z,1013.91
2017-10-10T01:44:30.099Z,1013.85
2017-10-10T01:45:39.274Z,1013.85
2017-10-10T01:46:48.107Z,1013.86
2017-10-10T01:47:56.940Z,1013.84
2017-10-10T01:49:05.773Z,1013.8
2017-10-10T01:50:14.609Z,1013.8
2017-10-10T01:51:23.439Z,1013.81
2017-10-10T01:52:32.272Z,1013.76
2017-10-10T01:53:41.104Z,1013.74
2017-10-10T01:54:50.240Z,1013.76
2017-10-10T01:55:59.076Z,1013.73
2017-10-10T01:57:07.908Z,1013.73
2017-10-10T01:58:16.740Z,1013.69
2017-10-10T01:59:25.571Z,1013.69
2017-10-10T02:00:34.500Z,1013.63
2017-10-10T02:01:43.333Z,1013.66
2017-10-10T02:02:52.166Z,1013.63
2017-10-10T02:04:00.999Z,1013.64
2017-10-10T02:05:09.831Z,1013.61
2017-10-10T02:06:18.980Z,1013.59
2017-10-10T02:07:27.800Z,1013.54
2017-10-10T02:08:36.636Z,1013.56
2017-10-10T02:09:45.467Z,1013.55
2017-10-10T02:10:54.299Z,1013.54
2017-10-10T02:12:03.182Z,1013.52
2017-10-10T02:13:12.012Z,1013.52
2017-10-10T02:14:20.843Z,1013.49
2017-10-10T02:15:29.673Z,1013.47
2017-10-10T02:16:38.507Z,1013.43
2017-10-10T02:17:47.389Z,1013.46
2017-10-10T02:18:56.222Z,1013.46
2017-10-10T02:20:05.058Z,1013.45
2017-10-10T02:21:13.890Z,1013.4
2017-10-10T02:22:22.724Z,1013.41
2017-10-10T02:23:31.555Z,1013.37
2017-10-10T02:24:40.387Z,1013.37
2017-10-10T02:25:49.221Z,1013.4
2017-10-10T02:26:58.053Z,1013.36
2017-10-10T02:28:06.885Z,1013.37
2017-10-10T02:29:15.969Z,1013.34
2017-10-10T02:30:24.800Z,1013.37
2017-10-10T02:31:33.635Z,1013.37
2017-10-10T02:32:42.461Z,1013.39
2017-10-10T02:33:51.293Z,1013.37
2017-10-10T02:35:00.473Z,1013.38
2017-10-10T02:36:09.305Z,1013.39
2017-10-10T02:37:18.145Z,1013.36
2017-10-10T02:38:26.975Z,1013.36
2017-10-10T02:39:35.809Z,1013.33
2017-10-10T02:40:44.638Z,1013.34
2017-10-10T02:41:53.471Z,1013.38
2017-10-10T02:43:02.304Z,1013.38
2017-10-10T02:44:11.187Z,1013.42
2017-10-10T02:45:20.020Z,1013.4
2017-10-10T02:46:29.004Z,1013.39
2017-10-10T02:47:37.833Z,1013.38
2017-10-10T02:48:46.666Z,1013.37
2017-10-10T02:49:55.497Z,1013.34
2017-10-10T02:51:04.344Z,1013.31
2017-10-10T02:52:13.597Z,1013.33
2017-10-10T02:53:22.415Z,1013.35
2017-10-10T02:54:31.248Z,1013.35
2017-10-10T02:55:40.082Z,1013.33
2017-10-10T02:56:48.915Z,1013.32
2017-10-10T02:57:57.899Z,1013.32
2017-10-10T02:59:06.731Z,1013.25
2017-10-10T03:00:15.563Z,1013.27
2017-10-10T03:01:24.395Z,1013.26
2017-10-10T03:02:33.227Z,1013.29
2017-10-10T03:03:42.258Z,1013.24
2017-10-10T03:04:51.432Z,1013.26
2017-10-10T03:06:00.264Z,1013.24
2017-10-10T03:07:09.446Z,1013.21
2017-10-10T03:08:18.278Z,1013.18
2017-10-10T03:09:27.409Z,1013.17
2017-10-10T03:10:36.242Z,1013.16
2017-10-10T03:11:45.081Z,1013.17
2017-10-10T03:12:53.910Z,1013.15
2017-10-10T03:14:02.740Z,1013.15
2017-10-10T03:15:11.972Z,1013.21
2017-10-10T03:16:20.800Z,1013.13
2017-10-10T03:17:29.633Z,1013.12
2017-10-10T03:18:38.465Z,1013.11
2017-10-10T03:19:47.306Z,1013.13
2017-10-10T03:20:56.130Z,1013.13
2017-10-10T03:22:04.964Z,1013.1
2017-10-10T03:23:13.795Z,1013.09
2017-10-10T03:24:22.627Z,1013.09
2017-10-10T03:25:31.461Z,1013.1
2017-10-10T03:26:40.390Z,1013.07
2017-10-10T03:27:49.222Z,1013.04
2017-10-10T03:28:58.053Z,1013.08
2017-10-10T03:30:06.887Z,1013.04
2017-10-10T03:31:15.727Z,1013.01
2017-10-10T03:32:25.446Z,1013.01
2017-10-10T03:33:34.278Z,1013.01
2017-10-10T03:34:43.112Z,1013.04
2017-10-10T03:35:52.284Z,1013
2017-10-10T03:37:01.114Z,1013.01
2017-10-10T03:38:10.098Z,1013.01
2017-10-10T03:39:18.929Z,1012.99
2017-10-10T03:40:28.101Z,1012.98
2017-10-10T03:41:36.935Z,1013
2017-10-10T03:42:45.769Z,1012.99
2017-10-10T03:43:54.751Z,1012.98
2017-10-10T03:45:03.585Z,1013
2017-10-10T03:46:12.759Z,1012.96
2017-10-10T03:47:21.593Z,1012.98
2017-10-10T03:48:30.429Z,1012.96
2017-10-10T03:49:39.411Z,1012.92
2017-10-10T03:50:48.247Z,1012.89
2017-10-10T03:51:57.080Z,1012.9
2017-10-10T03:53:05.913Z,1012.87
2017-10-10T03:54:14.745Z,1012.86
2017-10-10T03:55:23.629Z,1012.88
2017-10-10T03:56:32.462Z,1012.88
2017-10-10T03:57:41.292Z,1012.92
2017-10-10T03:58:50.466Z,1012.91
2017-10-10T03:59:59.298Z,1012.91
2017-10-10T04:01:08.178Z,1012.9
2017-10-10T04:02:17.012Z,1012.9
2017-10-10T04:03:25.845Z,1012.93
2017-10-10T04:04:34.678Z,1012.93
2017-10-10T04:05:43.509Z,1012.91
2017-10-10T04:06:52.493Z,1012.88
2017-10-10T04:08:01.328Z,1012.87
2017-10-10T04:09:10.161Z,1012.86
2017-10-10T04:10:18.990Z,1012.87
2017-10-10T04:11:27.820Z,1012.9
2017-10-10T04:12:36.953Z,1012.86
2017-10-10T04:13:45.787Z,1012.82
2017-10-10T04:14:54.619Z,1012.86
2017-10-10T04:16:03.453Z,1012.83
2017-10-10T04:17:12.286Z,1012.8
2017-10-10T04:18:21.218Z,1012.78
2017-10-10T04:19:30.396Z,1012.78
2017-10-10T04:20:39.227Z,1012.74
2017-10-10T04:21:48.061Z,1012.75
2017-10-10T04:22:56.892Z,1012.76
2017-10-10T04:24:05.777Z,1012.77
2017-10-10T04:25:14.611Z,1012.76
2017-10-10T04:26:23.446Z,1012.76
2017-10-10T04:27:32.279Z,1012.78
2017-10-10T04:28:41.112Z,1012.75
2017-10-10T04:29:50.096Z,1012.74
2017-10-10T04:30:59.272Z,1012.75
2017-10-10T04:32:08.105Z,1012.76
2017-10-10T04:33:16.938Z,1012.77
2017-10-10T04:34:25.771Z,1012.74
2017-10-10T04:35:34.857Z,1012.78
2017-10-10T04:36:43.689Z,1012.72
2017-10-10T04:37:52.544Z,1012.73
2017-10-10T04:39:01.354Z,1012.69
2017-10-10T04:40:10.187Z,1012.69
2017-10-10T04:41:19.270Z,1012.69
2017-10-10T04:42:28.101Z,1012.72
2017-10-10T04:43:36.937Z,1012.72
2017-10-10T04:44:45.769Z,1012.7
2017-10-10T04:45:54.602Z,1012.7
2017-10-10T04:47:03.584Z,1012.73
2017-10-10T04:48:12.418Z,1012.69
2017-10-10T04:49:21.252Z,1012.69
2017-10-10T04:50:30.086Z,1012.69
2017-10-10T04:51:38.918Z,1012.69
2017-10-10T04:52:48.001Z,1012.69
2017-10-10T04:53:56.831Z,1012.64
2017-10-10T04:55:05.663Z,1012.64
2017-10-10T04:56:14.496Z,1012.6
2017-10-10T04:57:23.328Z,1012.63
2017-10-10T04:58:32.411Z,1012.65
2017-10-10T04:59:41.241Z,1012.62
2017-10-10T05:00:50.076Z,1012.63
2017-10-10T05:01:58.909Z,1012.62
2017-10-10T05:03:07.740Z,1012.63
2017-10-10T05:04:16.623Z,1012.66
2017-10-10T05:05:25.461Z,1012.64
2017-10-10T05:06:34.284Z,1012.65
2017-10-10T05:07:43.118Z,1012.62
2017-10-10T05:08:51.948Z,1012.58
2017-10-10T05:10:00.881Z,1012.64
2017-10-10T05:11:09.719Z,1012.56
2017-10-10T05:12:18.551Z,1012.62
2017-10-10T05:13:27.388Z,1012.6
2017-10-10T05:14:36.220Z,1012.63
2017-10-10T05:15:45.203Z,1012.62
2017-10-10T05:16:54.037Z,1012.62
2017-10-10T05:18:02.871Z,1012.62
2017-10-10T05:19:11.702Z,1012.65
2017-10-10T05:20:20.535Z,1012.64
2017-10-10T05:21:29.368Z,1012.65
2017-10-10T05:22:38.200Z,1012.63
2017-10-10T05:23:47.031Z,1012.64
2017-10-10T05:24:56.211Z,1012.68
2017-10-10T05:26:05.044Z,1012.68
2017-10-10T05:27:14.026Z,1012.68
2017-10-10T05:28:22.858Z,1012.7
2017-10-10T05:29:31.695Z,1012.64
2017-10-10T05:30:40.536Z,1012.61
2017-10-10T05:31:49.367Z,1012.62
2017-10-10T05:32:58.401Z,1012.66
2017-10-10T05:34:07.234Z,1012.62
2017-10-10T05:35:16.070Z,1012.64
2017-10-10T05:36:24.907Z,1012.61
2017-10-10T05:37:33.742Z,1012.61
2017-10-10T05:38:42.721Z,1012.61
2017-10-10T05:39:51.553Z,1012.59
2017-10-10T05:41:00.386Z,1012.61
2017-10-10T05:42:09.220Z,1012.59
2017-10-10T05:43:18.054Z,1012.56
2017-10-10T05:44:26.886Z,1012.55
2017-10-10T05:45:36.076Z,1012.55
2017-10-10T05:46:44.910Z,1012.57
2017-10-10T05:47:53.743Z,1012.55
2017-10-10T05:49:02.576Z,1012.58
2017-10-10T05:50:11.562Z,1012.55
2017-10-10T05:51:20.393Z,1012.54
2017-10-10T05:52:29.227Z,1012.56
2017-10-10T05:53:38.056Z,1012.62
2017-10-10T05:54:47.236Z,1012.58
2017-10-10T05:55:56.114Z,1012.55
2017-10-10T05:57:04.946Z,1012.58
2017-10-10T05:58:13.778Z,1012.59
2017-10-10T05:59:22.608Z,1012.57
2017-10-10T06:00:31.444Z,1012.59
2017-10-10T06:01:40.429Z,1012.6
2017-10-10T06:02:49.263Z,1012.62
2017-10-10T06:03:58.094Z,1012.61
2017-10-10T06:05:06.927Z,1012.61
2017-10-10T06:06:15.757Z,1012.67
2017-10-10T06:07:24.689Z,1012.64
2017-10-10T06:08:33.867Z,1012.63
2017-10-10T06:09:42.701Z,1012.69
2017-10-10T06:10:51.534Z,1012.67
2017-10-10T06:12:00.366Z,1012.7
2017-10-10T06:13:09.399Z,1012.7
2017-10-10T06:14:18.232Z,1012.69
2017-10-10T06:15:27.065Z,1012.73
2017-10-10T06:16:35.894Z,1012.67
2017-10-10T06:17:44.725Z,1012.72
2017-10-10T06:18:53.957Z,1012.68
2017-10-10T06:20:02.793Z,1012.72
2017-10-10T06:21:11.619Z,1012.67
2017-10-10T06:22:20.451Z,1012.69
2017-10-10T06:23:29.291Z,1012.7
2017-10-10T06:24:38.266Z,1012.67
2017-10-10T06:25:47.100Z,1012.68
2017-10-10T06:26:55.935Z,1012.69
2017-10-10T06:28:04.768Z,1012.67
2017-10-10T06:29:13.600Z,1012.65
2017-10-10T06:30:22.733Z,1012.65
2017-10-10T06:31:31.566Z,1012.7
2017-10-10T06:32:40.395Z,1012.7
2017-10-10T06:33:49.227Z,1012.7
2017-10-10T06:34:58.407Z,1012.69
2017-10-10T06:36:07.390Z,1012.7
2017-10-10T06:37:16.221Z,1012.72
2017-10-10T06:38:25.054Z,1012.77
2017-10-10T06:39:33.885Z,1012.73
2017-10-10T06:40:42.720Z,1012.75
2017-10-10T06:41:52.055Z,1012.71
2017-10-10T06:43:00.888Z,1012.77
2017-10-10T06:44:09.722Z,1012.79
2017-10-10T06:45:18.554Z,1012.82
2017-10-10T06:46:27.392Z,1012.85
2017-10-10T06:47:36.670Z,1012.78
2017-10-10T06:48:45.502Z,1012.81
2017-10-10T06:49:54.337Z,1012.86
2017-10-10T06:51:03.171Z,1012.83
2017-10-10T06:52:12.005Z,1012.81
2017-10-10T06:53:20.938Z,1012.83
2017-10-10T06:54:29.771Z,1012.84
2017-10-10T06:55:38.604Z,1012.83
2017-10-10T06:56:47.437Z,1012.84
2017-10-10T06:57:56.272Z,1012.84
2017-10-10T06:59:05.356Z,1012.83
2017-10-10T07:00:14.538Z,1012.85
2017-10-10T07:01:23.715Z,1012.86
2017-10-10T07:02:32.546Z,1012.88
2017-10-10T07:03:41.378Z,1012.85
2017-10-10T07:04:50.757Z,1012.87
2017-10-10T07:05:59.588Z,1012.84
2017-10-10T07:07:08.766Z,1012.83
2017-10-10T07:08:17.597Z,1012.89
2017-10-10T07:09:26.431Z,1012.88
2017-10-10T07:10:35.463Z,1012.9
2017-10-10T07:11:44.298Z,1012.89
2017-10-10T07:12:53.131Z,1012.92
2017-10-10T07:14:01.964Z,1012.85
2017-10-10T07:15:10.799Z,1012.89
2017-10-10T07:16:19.733Z,1012.89
2017-10-10T07:17:28.567Z,1012.91
2017-10-10T07:18:37.402Z,1012.89
2017-10-10T07:19:46.234Z,1012.94
2017-10-10T07:20:55.408Z,1012.94
2017-10-10T07:22:04.543Z,1012.94
2017-10-10T07:23:13.379Z,1012.93
2017-10-10T07:24:22.212Z,1012.99
2017-10-10T07:25:31.046Z,1013
2017-10-10T07:26:39.883Z,1013.05
2017-10-10T07:27:48.763Z,1013
2017-10-10T07:28:57.950Z,1013.07
2017-10-10T07:30:06.787Z,1013.02
2017-10-10T07:31:15.620Z,1013.06
2017-10-10T07:32:24.456Z,1013.01
2017-10-10T07:33:33.389Z,1013.06
2017-10-10T07:34:42.220Z,1013.02
2017-10-10T07:35:51.053Z,1013.05
2017-10-10T07:37:00.246Z,1013.01
2017-10-10T07:38:09.071Z,1013.04
2017-10-10T07:39:18.005Z,1013.05
2017-10-10T07:40:26.839Z,1013.06
2017-10-10T07:41:35.673Z,1013.01
2017-10-10T07:42:44.506Z,1012.98
2017-10-10T07:43:53.338Z,1013.01
2017-10-10T07:45:02.221Z,1013
2017-10-10T07:46:11.053Z,1013.03
2017-10-10T07:47:19.887Z,1013.05
2017-10-10T07:48:28.718Z,1013.08
2017-10-10T07:49:37.550Z,1013.04
2017-10-10T07:50:46.385Z,1013.04
2017-10-10T07:51:55.224Z,1013.04
2017-10-10T07:53:04.051Z,1013.06
2017-10-10T07:54:12.883Z,1013.06
2017-10-10T07:55:21.719Z,1013.04
2017-10-10T07:56:30.699Z,1013.1
2017-10-10T07:57:39.541Z,1013.06
2017-10-10T07:58:48.369Z,1013.05
2017-10-10T07:59:57.202Z,1013.05
2017-10-10T08:01:06.038Z,1013.08
2017-10-10T08:02:14.919Z,1013.07
2017-10-10T08:03:23.760Z,1013.07
2017-10-10T08:04:32.584Z,1013.07
2017-10-10T08:05:41.416Z,1013.05
2017-10-10T08:06:50.600Z,1013.14
2017-10-10T08:07:59.737Z,1013.1
2017-10-10T08:09:08.566Z,1013.05
2017-10-10T08:10:17.399Z,1013.11
2017-10-10T08:11:26.237Z,1013.11
2017-10-10T08:12:35.074Z,1013.1
2017-10-10T08:13:44.004Z,1013.1
2017-10-10T08:14:52.829Z,1013.13
2017-10-10T08:16:01.660Z,1013.11
2017-10-10T08:17:10.492Z,1013.11
2017-10-10T08:18:19.323Z,1013.11
2017-10-10T08:19:28.209Z,1013.09
2017-10-10T08:20:37.396Z,1013.11
2017-10-10T08:21:46.228Z,1013.09
2017-10-10T08:22:55.069Z,1013.1
2017-10-10T08:24:04.242Z,1013.12
2017-10-10T08:25:13.173Z,1013.15
2017-10-10T08:26:22.005Z,1013.1
2017-10-10T08:27:30.839Z,1013.1
2017-10-10T08:28:39.674Z,1013.09
2017-10-10T08:29:48.857Z,1013.06
2017-10-10T08:30:57.692Z,1013.06
2017-10-10T08:32:06.531Z,1013.02
2017-10-10T08:33:15.705Z,1013.04
2017-10-10T08:34:24.540Z,1013.05
2017-10-10T08:35:33.371Z,1013.06
2017-10-10T08:36:42.254Z,1013.04
2017-10-10T08:37:51.089Z,1013.07
2017-10-10T08:39:00.265Z,1013.09
2017-10-10T08:40:09.098Z,1013.08
2017-10-10T08:41:17.934Z,1013.03
2017-10-10T08:42:27.064Z,1013.05
2017-10-10T08:43:35.948Z,1013.01
2017-10-10T08:44:44.782Z,1013.02
2017-10-10T08:45:53.616Z,1013.01
2017-10-10T08:47:02.453Z,1013.04
2017-10-10T08:48:11.438Z,1013.04
2017-10-10T08:49:20.273Z,1013.06
2017-10-10T08:50:29.108Z,1013.07
2017-10-10T08:51:37.943Z,1013.08
2017-10-10T08:52:46.777Z,1013.04
2017-10-10T08:53:55.861Z,1013.17
2017-10-10T08:55:04.695Z,1013.09
2017-10-10T08:56:13.530Z,1013.08
2017-10-10T08:57:22.363Z,1013.14
2017-10-10T08:58:31.198Z,1013.2
2017-10-10T08:59:40.081Z,1013.15
2017-10-10T09:00:48.918Z,1013.2
2017-10-10T09:01:57.749Z,1013.17
2017-10-10T09:03:06.583Z,1013.12
2017-10-10T09:04:15.417Z,1013.19
2017-10-10T09:05:24.351Z,1013.19
2017-10-10T09:06:33.185Z,1013.11
2017-10-10T09:07:42.370Z,1013.13
2017-10-10T09:08:51.206Z,1013.17
2017-10-10T09:10:00.041Z,1013.17
2017-10-10T09:11:08.975Z,1013.2
2017-10-10T09:12:17.810Z,1013.19
2017-10-10T09:13:26.643Z,1013.17
2017-10-10T09:14:35.477Z,1013.15
2017-10-10T09:15:44.316Z,1013.19
2017-10-10T09:16:53.201Z,1013.19
2017-10-10T09:18:02.044Z,1013.19
2017-10-10T09:19:11.217Z,1013.24
2017-10-10T09:20:20.398Z,1013.17
2017-10-10T09:21:29.233Z,1013.17
2017-10-10T09:22:38.123Z,1013.19
2017-10-10T09:23:46.954Z,1013.15
2017-10-10T09:24:55.790Z,1013.14
2017-10-10T09:26:04.627Z,1013.18
2017-10-10T09:27:13.460Z,1013.25
2017-10-10T09:28:22.699Z,1013.21
2017-10-10T09:29:31.535Z,1013.2
2017-10-10T09:30:40.370Z,1013.27
2017-10-10T09:31:49.204Z,1013.27
2017-10-10T09:32:58.039Z,1013.23
2017-10-10T09:34:06.921Z,1013.27
2017-10-10T09:35:15.805Z,1013.28
2017-10-10T09:36:24.987Z,1013.26
2017-10-10T09:37:33.820Z,1013.22
2017-10-10T09:38:42.654Z,1013.23
2017-10-10T09:39:51.542Z,1013.24
2017-10-10T09:41:00.379Z,1013.3
2017-10-10T09:42:09.211Z,1013.3
2017-10-10T09:43:18.048Z,1013.32
2017-10-10T09:44:26.885Z,1013.3
2017-10-10T09:45:35.870Z,1013.34
2017-10-10T09:46:44.705Z,1013.31
2017-10-10T09:47:53.538Z,1013.31
2017-10-10T09:49:02.376Z,1013.23
2017-10-10T09:50:11.213Z,1013.28
2017-10-10T09:51:20.048Z,1013.33
2017-10-10T09:52:28.881Z,1013.3
2017-10-10T09:53:37.715Z,1013.32
2017-10-10T09:54:46.551Z,1013.32
2017-10-10T09:55:55.387Z,1013.28
2017-10-10T09:57:04.471Z,1013.32
2017-10-10T09:58:13.306Z,1013.27
2017-10-10T09:59:22.139Z,1013.29
2017-10-10T10:00:30.978Z,1013.32
2017-10-10T10:01:39.808Z,1013.3
2017-10-10T10:02:48.704Z,1013.29
2017-10-10T10:03:57.526Z,1013.29
2017-10-10T10:05:06.364Z,1013.3
2017-10-10T10:06:15.197Z,1013.3
2017-10-10T10:07:24.032Z,1013.31
2017-10-10T10:08:33.117Z,1013.28
2017-10-10T10:09:41.952Z,1013.31
2017-10-10T10:10:50.786Z,1013.27
2017-10-10T10:11:59.628Z,1013.28
2017-10-10T10:13:08.454Z,1013.32
2017-10-10T10:14:17.341Z,1013.33
2017-10-10T10:15:26.177Z,1013.32
2017-10-10T10:16:35.012Z,1013.4
2017-10-10T10:17:43.855Z,1013.35
2017-10-10T10:18:52.681Z,1013.36
2017-10-10T10:20:01.667Z,1013.27
2017-10-10T10:21:10.503Z,1013.32
2017-10-10T10:22:19.340Z,1013.38
2017-10-10T10:23:28.174Z,1013.42
2017-10-10T10:24:37.011Z,1013.39
2017-10-10T10:25:46.241Z,1013.38
2017-10-10T10:26:55.074Z,1013.39
2017-10-10T10:28:04.258Z,1013.39
2017-10-10T10:29:13.094Z,1013.38
2017-10-10T10:30:21.933Z,1013.39
2017-10-10T10:31:31.166Z,1013.4
2017-10-10T10:32:40.000Z,1013.35
2017-10-10T10:33:48.835Z,1013.32
2017-10-10T10:34:57.671Z,1013.3
2017-10-10T10:36:06.506Z,1013.3
2017-10-10T10:37:15.391Z,1013.28
2017-10-10T10:38:24.227Z,1013.27
2017-10-10T10:39:33.061Z,1013.32
2017-10-10T10:40:41.895Z,1013.32
2017-10-10T10:41:50.729Z,1013.36
2017-10-10T10:42:59.613Z,1013.32
2017-10-10T10:44:08.446Z,1013.33
2017-10-10T10:45:17.288Z,1013.41
2017-10-10T10:46:26.114Z,1013.36
2017-10-10T10:47:34.949Z,1013.3
2017-10-10T10:48:43.934Z,1013.33
2017-10-10T10:49:52.766Z,1013.32
2017-10-10T10:51:01.600Z,1013.35
2017-10-10T10:52:10.432Z,1013.26
2017-10-10T10:53:19.270Z,1013.3
2017-10-10T10:54:28.207Z,1013.22
2017-10-10T10:55:37.048Z,1013.17
2017-10-10T10:56:45.880Z,1013.14
2017-10-10T10:57:55.063Z,1013.12
2017-10-10T10:59:04.249Z,1013.07
2017-10-10T11:00:13.134Z,1013.14
2017-10-10T11:01:21.969Z,1013.05
2017-10-10T11:02:30.802Z,1013.04
2017-10-10T11:03:39.635Z,1013.1
2017-10-10T11:04:48.469Z,1013.09
2017-10-10T11:05:57.604Z,1013.09
2017-10-10T11:07:06.438Z,1013.18
2017-10-10T11:08:15.276Z,1013.18
2017-10-10T11:09:24.107Z,1013.13
2017-10-10T11:10:32.945Z,1013.11
2017-10-10T11:11:41.881Z,1013.15
2017-10-10T11:12:50.714Z,1013.09
2017-10-10T11:13:59.551Z,1013.11
2017-10-10T11:15:08.388Z,1013.15
2017-10-10T11:16:17.224Z,1013.15
2017-10-10T11:17:26.115Z,1013.21
2017-10-10T11:18:34.950Z,1013.19
2017-10-10T11:19:43.787Z,1013.26
2017-10-10T11:20:52.623Z,1013.15
2017-10-10T11:22:01.465Z,1013.12
2017-10-10T11:23:10.498Z,1013.07
2017-10-10T11:24:19.333Z,1013.1
2017-10-10T11:25:28.169Z,1013.04
2017-10-10T11:26:37.004Z,1013.09
2017-10-10T11:27:46.191Z,1013.11
2017-10-10T11:28:55.225Z,1013.11
2017-10-10T11:30:04.060Z,1013.09
2017-10-10T11:31:13.246Z,1013.11
2017-10-10T11:32:22.085Z,1013.17
2017-10-10T11:33:30.922Z,1013.09
2017-10-10T11:34:39.904Z,1013.15
2017-10-10T11:35:48.741Z,1013.15
2017-10-10T11:36:57.583Z,1013.19
2017-10-10T11:38:06.419Z,1013.25
2017-10-10T11:39:15.265Z,1013.22
2017-10-10T11:40:24.190Z,1013.21
2017-10-10T11:41:33.025Z,1013.26
2017-10-10T11:42:41.861Z,1013.27
2017-10-10T11:43:50.694Z,1013.18
2017-10-10T11:44:59.532Z,1013.27
2017-10-10T11:46:08.370Z,1013.19
2017-10-10T11:47:17.205Z,1013.25
2017-10-10T11:48:26.385Z,1013.19
2017-10-10T11:49:35.227Z,1013.18
2017-10-10T11:50:44.064Z,1013.14
2017-10-10T11:51:52.949Z,1013.17
2017-10-10T11:53:01.788Z,1013.15
2017-10-10T11:54:10.974Z,1013.14
2017-10-10T11:55:19.807Z,1013.14
2017-10-10T11:56:28.643Z,1013.13
2017-10-10T11:57:37.579Z,1013.14
2017-10-10T11:58:46.414Z,1013.12
2017-10-10T11:59:55.253Z,1013.22
2017-10-10T12:01:04.089Z,1013.25
2017-10-10T12:02:12.919Z,1013.23
2017-10-10T12:03:21.858Z,1013.26
2017-10-10T12:04:30.694Z,1013.25
2017-10-10T12:05:39.526Z,1013.27
2017-10-10T12:06:48.362Z,1013.24
2017-10-10T12:07:57.201Z,1013.23
2017-10-10T12:09:06.035Z,1013.26
2017-10-10T12:10:14.870Z,1013.25
2017-10-10T12:11:23.703Z,1013.26
2017-10-10T12:12:32.541Z,1013.26
2017-10-10T12:13:41.377Z,1013.25
2017-10-10T12:14:50.613Z,1013.24
2017-10-10T12:15:59.449Z,1013.19
2017-10-10T12:17:08.291Z,1013.21
2017-10-10T12:18:17.125Z,1013.21
2017-10-10T12:19:25.959Z,1013.13
2017-10-10T12:20:35.536Z,1013.12
2017-10-10T12:21:44.368Z,1013.09
2017-10-10T12:22:53.202Z,1013.12
2017-10-10T12:24:02.054Z,1013.11
2017-10-10T12:25:10.877Z,1013.1
2017-10-10T12:26:19.965Z,1013.13
2017-10-10T12:27:28.802Z,1013.13
2017-10-10T12:28:37.633Z,1013.13
2017-10-10T12:29:46.468Z,1013.08
2017-10-10T12:30:55.304Z,1013.1
2017-10-10T12:32:04.239Z,1013.13
2017-10-10T12:33:13.075Z,1013.15
2017-10-10T12:34:21.911Z,1013.18
2017-10-10T12:35:30.748Z,1013.19
2017-10-10T12:36:39.583Z,1013.16
2017-10-10T12:37:49.177Z,1013.18
2017-10-10T12:38:58.366Z,1013.18
2017-10-10T12:40:07.201Z,1013.14
2017-10-10T12:41:16.032Z,1013.18
2017-10-10T12:42:24.867Z,1013.22
2017-10-10T12:43:33.857Z,1013.2
2017-10-10T12:44:42.686Z,1013.16
2017-10-10T12:45:51.519Z,1013.2
2017-10-10T12:47:00.354Z,1013.18
2017-10-10T12:48:09.185Z,1013.21
2017-10-10T12:49:18.121Z,1013.13
2017-10-10T12:50:26.955Z,1013.15
2017-10-10T12:51:35.791Z,1013.19
2017-10-10T12:52:44.626Z,1013.19
2017-10-10T12:53:53.467Z,1013.08
2017-10-10T12:55:02.342Z,1013.04
2017-10-10T12:56:11.178Z,1013.1
2017-10-10T12:57:20.016Z,1013.04
2017-10-10T12:58:28.846Z,1012.97
2017-10-10T12:59:37.682Z,1013.04
2017-10-10T13:00:46.567Z,1013.08
2017-10-10T13:01:55.402Z,1013.03
2017-10-10T13:03:04.239Z,1013.05
2017-10-10T13:04:13.431Z,1013
2017-10-10T13:05:22.260Z,1013.03
2017-10-10T13:06:31.196Z,1013
2017-10-10T13:07:40.032Z,1013.04
2017-10-10T13:08:48.867Z,1013.04
2017-10-10T13:09:58.050Z,1012.96
2017-10-10T13:11:06.885Z,1013.01
2017-10-10T13:12:15.772Z,1013.02
2017-10-10T13:13:24.605Z,1013.03
2017-10-10T13:14:33.441Z,1013.02
2017-10-10T13:15:42.276Z,1013.09
2017-10-10T13:16:51.110Z,1013.09
2017-10-10T13:18:00.891Z,1013.12
2017-10-10T13:19:09.727Z,1013.09
2017-10-10T13:20:18.561Z,1013.1
2017-10-10T13:21:27.395Z,1013.06
2017-10-10T13:22:36.228Z,1013.03
2017-10-10T13:23:45.111Z,1013.1
2017-10-10T13:24:53.946Z,1013.11
2017-10-10T13:26:02.784Z,1013.13
2017-10-10T13:27:11.609Z,1013.11
2017-10-10T13:28:20.442Z,1013.11
2017-10-10T13:29:29.528Z,1013.09
2017-10-10T13:30:38.363Z,1013.09
2017-10-10T13:31:47.199Z,1013.11
2017-10-10T13:32:56.035Z,1013.12
2017-10-10T13:34:04.868Z,1013.09
2017-10-10T13:35:13.801Z,1013.11
2017-10-10T13:36:22.635Z,1013.1
2017-10-10T13:37:31.477Z,1013.08
2017-10-10T13:38:40.302Z,1013.08
2017-10-10T13:39:49.137Z,1013.06
2017-10-10T13:40:58.371Z,1013.08
2017-10-10T13:42:07.206Z,1013.07
2017-10-10T13:43:16.042Z,1013.09
2017-10-10T13:44:24.878Z,1013.06
2017-10-10T13:45:33.711Z,1013.19
2017-10-10T13:46:42.596Z,1013.03
2017-10-10T13:47:51.431Z,1013.09
2017-10-10T13:49:00.264Z,1013.07
2017-10-10T13:50:09.098Z,1013.05
2017-10-10T13:51:17.934Z,1013.14
2017-10-10T13:52:27.016Z,1013.05
2017-10-10T13:53:35.851Z,1013.02
2017-10-10T13:54:44.682Z,1012.99
2017-10-10T13:55:53.516Z,1013.05